sensor_id;sensor_type;location;lat;lon;timestamp;temperature;humidity
31527;DHT22;18136;42.236;-73.040;2022-07-03T00:01:56;19.10;99.90
31527;DHT22;18136;42.236;-73.040;2022-07-03T00:04:22;19.10;99.90
31527;DHT22;18136;42.236;-73.040;2022-07-03T00:06:48;19.10;99.90
31527;DHT22;18136;42.236;-73.040;2022-07-03T00:09:16;19.00;99.90
31527;DHT22;18136;42.236;-73.040;2022-07-03T00:11:43;19.00;99.90
31527;DHT22;18136;42.236;-73.040;2022-07-03T00:14:10;19.10;99.90
31527;DHT22;18136;42.236;-73.040;2022-07-03T00:16:36;19.00;99.90
31527;DHT22;18136;42.236;-73.040;2022-07-03T00:19:02;18.90;99.90
31527;DHT22;18136;42.236;-73.040;2022-07-03T00:21:33;18.90;99.90
31527;DHT22;18136;42.236;-73.040;2022-07-03T00:24:20;18.90;99.90
31527;DHT22;18136;42.236;-73.040;2022-07-03T00:26:51;18.90;99.90
31527;DHT22;18136;42.236;-73.040;2022-07-03T00:29:21;18.90;99.90
31527;DHT22;18136;42.236;-73.040;2022-07-03T00:31:49;18.90;99.90
31527;DHT22;18136;42.236;-73.040;2022-07-03T00:34:17;18.90;99.90
31527;DHT22;18136;42.236;-73.040;2022-07-03T00:36:46;18.80;99.90
31527;DHT22;18136;42.236;-73.040;2022-07-03T00:39:14;18.80;99.90
31527;DHT22;18136;42.236;-73.040;2022-07-03T00:41:41;18.80;99.90
31527;DHT22;18136;42.236;-73.040;2022-07-03T00:44:12;18.80;99.90
31527;DHT22;18136;42.236;-73.040;2022-07-03T00:46:41;18.80;99.90
31527;DHT22;18136;42.236;-73.040;2022-07-03T00:49:17;18.70;99.90
31527;DHT22;18136;42.236;-73.040;2022-07-03T00:51:47;18.70;99.90
31527;DHT22;18136;42.236;-73.040;2022-07-03T00:54:20;18.60;99.90
31527;DHT22;18136;42.236;-73.040;2022-07-03T00:56:55;18.60;99.90
31527;DHT22;18136;42.236;-73.040;2022-07-03T00:59:26;18.60;99.90
31527;DHT22;18136;42.236;-73.040;2022-07-03T01:02:03;18.60;99.90
31527;DHT22;18136;42.236;-73.040;2022-07-03T01:16:27;18.40;99.90
31527;DHT22;18136;42.236;-73.040;2022-07-03T01:28:12;18.40;99.90
31527;DHT22;18136;42.236;-73.040;2022-07-03T01:30:57;18.40;99.90
31527;DHT22;18136;42.236;-73.040;2022-07-03T01:33:32;18.40;99.90
31527;DHT22;18136;42.236;-73.040;2022-07-03T01:36:05;18.30;99.90
31527;DHT22;18136;42.236;-73.040;2022-07-03T01:38:36;18.30;99.90
31527;DHT22;18136;42.236;-73.040;2022-07-03T01:41:08;18.30;99.90
31527;DHT22;18136;42.236;-73.040;2022-07-03T01:43:47;18.20;99.90
31527;DHT22;18136;42.236;-73.040;2022-07-03T01:46:18;18.20;99.90
31527;DHT22;18136;42.236;-73.040;2022-07-03T01:48:48;18.20;99.90
31527;DHT22;18136;42.236;-73.040;2022-07-03T01:51:16;18.10;99.90
31527;DHT22;18136;42.236;-73.040;2022-07-03T01:53:51;18.10;99.90
31527;DHT22;18136;42.236;-73.040;2022-07-03T01:56:23;18.10;99.90
31527;DHT22;18136;42.236;-73.040;2022-07-03T01:58:50;18.20;99.90
31527;DHT22;18136;42.236;-73.040;2022-07-03T02:04:04;18.10;99.90
31527;DHT22;18136;42.236;-73.040;2022-07-03T02:09:26;18.10;99.90
31527;DHT22;18136;42.236;-73.040;2022-07-03T02:11:55;18.10;99.90
31527;DHT22;18136;42.236;-73.040;2022-07-03T02:14:24;18.00;99.90
31527;DHT22;18136;42.236;-73.040;2022-07-03T02:17:18;18.10;99.90
31527;DHT22;18136;42.236;-73.040;2022-07-03T02:22:26;18.00;99.90
31527;DHT22;18136;42.236;-73.040;2022-07-03T02:24:53;18.00;99.90
31527;DHT22;18136;42.236;-73.040;2022-07-03T02:27:26;18.00;99.90
31527;DHT22;18136;42.236;-73.040;2022-07-03T02:30:16;18.00;99.90
31527;DHT22;18136;42.236;-73.040;2022-07-03T02:32:52;17.90;99.90
31527;DHT22;18136;42.236;-73.040;2022-07-03T02:35:36;17.90;99.90
31527;DHT22;18136;42.236;-73.040;2022-07-03T02:38:09;17.90;99.90
31527;DHT22;18136;42.236;-73.040;2022-07-03T02:41:02;18.00;99.90
31527;DHT22;18136;42.236;-73.040;2022-07-03T02:43:59;17.90;99.90
31527;DHT22;18136;42.236;-73.040;2022-07-03T02:52:46;17.90;99.90
31527;DHT22;18136;42.236;-73.040;2022-07-03T02:58:37;17.80;99.90
31527;DHT22;18136;42.236;-73.040;2022-07-03T03:01:24;17.80;99.90
31527;DHT22;18136;42.236;-73.040;2022-07-03T03:06:54;17.70;99.90
31527;DHT22;18136;42.236;-73.040;2022-07-03T03:09:24;17.60;99.90
31527;DHT22;18136;42.236;-73.040;2022-07-03T03:11:52;17.70;99.90
31527;DHT22;18136;42.236;-73.040;2022-07-03T03:14:30;17.60;99.90
31527;DHT22;18136;42.236;-73.040;2022-07-03T03:17:05;17.60;99.90
31527;DHT22;18136;42.236;-73.040;2022-07-03T03:19:39;17.60;99.90
31527;DHT22;18136;42.236;-73.040;2022-07-03T03:25:04;17.50;99.90
31527;DHT22;18136;42.236;-73.040;2022-07-03T03:27:30;17.40;99.90
31527;DHT22;18136;42.236;-73.040;2022-07-03T03:29:56;17.40;99.90
31527;DHT22;18136;42.236;-73.040;2022-07-03T03:32:25;17.40;99.90
31527;DHT22;18136;42.236;-73.040;2022-07-03T03:34:51;17.30;99.90
31527;DHT22;18136;42.236;-73.040;2022-07-03T03:37:18;17.30;99.90
31527;DHT22;18136;42.236;-73.040;2022-07-03T03:39:44;17.30;99.90
31527;DHT22;18136;42.236;-73.040;2022-07-03T03:42:10;17.20;99.90
31527;DHT22;18136;42.236;-73.040;2022-07-03T03:44:36;17.20;99.90
31527;DHT22;18136;42.236;-73.040;2022-07-03T03:47:02;17.10;99.90
31527;DHT22;18136;42.236;-73.040;2022-07-03T03:49:28;17.10;99.90
31527;DHT22;18136;42.236;-73.040;2022-07-03T03:51:55;17.00;99.90
31527;DHT22;18136;42.236;-73.040;2022-07-03T03:54:22;16.90;99.90
31527;DHT22;18136;42.236;-73.040;2022-07-03T03:56:48;16.90;99.90
31527;DHT22;18136;42.236;-73.040;2022-07-03T03:59:14;16.80;99.90
31527;DHT22;18136;42.236;-73.040;2022-07-03T04:01:40;16.70;99.90
31527;DHT22;18136;42.236;-73.040;2022-07-03T04:04:07;16.70;99.90
31527;DHT22;18136;42.236;-73.040;2022-07-03T04:06:33;16.60;99.90
31527;DHT22;18136;42.236;-73.040;2022-07-03T04:08:59;16.60;99.90
31527;DHT22;18136;42.236;-73.040;2022-07-03T04:11:25;16.50;99.90
31527;DHT22;18136;42.236;-73.040;2022-07-03T04:13:51;16.50;99.90
31527;DHT22;18136;42.236;-73.040;2022-07-03T04:16:17;16.40;99.90
31527;DHT22;18136;42.236;-73.040;2022-07-03T04:18:43;16.40;99.90
31527;DHT22;18136;42.236;-73.040;2022-07-03T04:21:09;16.30;99.90
31527;DHT22;18136;42.236;-73.040;2022-07-03T04:23:35;16.20;99.90
31527;DHT22;18136;42.236;-73.040;2022-07-03T04:26:07;16.10;99.90
31527;DHT22;18136;42.236;-73.040;2022-07-03T04:28:33;16.10;99.90
31527;DHT22;18136;42.236;-73.040;2022-07-03T04:31:00;16.00;99.90
31527;DHT22;18136;42.236;-73.040;2022-07-03T04:33:26;16.00;99.90
31527;DHT22;18136;42.236;-73.040;2022-07-03T04:35:52;15.90;99.90
31527;DHT22;18136;42.236;-73.040;2022-07-03T04:38:18;15.80;99.90
31527;DHT22;18136;42.236;-73.040;2022-07-03T04:40:44;15.80;99.90
31527;DHT22;18136;42.236;-73.040;2022-07-03T04:43:10;15.60;99.90
31527;DHT22;18136;42.236;-73.040;2022-07-03T04:45:36;15.60;99.90
31527;DHT22;18136;42.236;-73.040;2022-07-03T04:48:03;15.50;99.90
31527;DHT22;18136;42.236;-73.040;2022-07-03T04:50:29;15.50;99.90
31527;DHT22;18136;42.236;-73.040;2022-07-03T04:52:55;15.50;99.90
31527;DHT22;18136;42.236;-73.040;2022-07-03T04:55:21;15.40;99.90
31527;DHT22;18136;42.236;-73.040;2022-07-03T04:57:47;15.40;99.90
31527;DHT22;18136;42.236;-73.040;2022-07-03T05:00:13;15.30;99.90
31527;DHT22;18136;42.236;-73.040;2022-07-03T05:02:39;15.30;99.90
31527;DHT22;18136;42.236;-73.040;2022-07-03T05:05:06;15.20;99.90
31527;DHT22;18136;42.236;-73.040;2022-07-03T05:07:32;15.20;99.90
31527;DHT22;18136;42.236;-73.040;2022-07-03T05:09:58;15.10;99.90
31527;DHT22;18136;42.236;-73.040;2022-07-03T05:12:24;15.10;99.90
31527;DHT22;18136;42.236;-73.040;2022-07-03T05:14:50;15.10;99.90
31527;DHT22;18136;42.236;-73.040;2022-07-03T05:17:19;15.10;99.90
31527;DHT22;18136;42.236;-73.040;2022-07-03T05:19:45;15.00;99.90
31527;DHT22;18136;42.236;-73.040;2022-07-03T05:22:12;15.00;99.90
31527;DHT22;18136;42.236;-73.040;2022-07-03T05:24:38;15.00;99.90
31527;DHT22;18136;42.236;-73.040;2022-07-03T05:27:04;15.00;99.90
31527;DHT22;18136;42.236;-73.040;2022-07-03T05:29:30;14.90;99.90
31527;DHT22;18136;42.236;-73.040;2022-07-03T05:31:56;14.80;99.90
31527;DHT22;18136;42.236;-73.040;2022-07-03T05:34:22;14.80;99.90
31527;DHT22;18136;42.236;-73.040;2022-07-03T05:36:48;14.80;99.90
31527;DHT22;18136;42.236;-73.040;2022-07-03T05:39:14;14.80;99.90
31527;DHT22;18136;42.236;-73.040;2022-07-03T05:41:59;14.80;99.90
31527;DHT22;18136;42.236;-73.040;2022-07-03T05:44:25;14.70;99.90
31527;DHT22;18136;42.236;-73.040;2022-07-03T05:46:51;14.70;99.90
31527;DHT22;18136;42.236;-73.040;2022-07-03T05:49:17;14.60;99.90
31527;DHT22;18136;42.236;-73.040;2022-07-03T05:51:46;14.60;99.90
31527;DHT22;18136;42.236;-73.040;2022-07-03T05:54:12;14.60;99.90
31527;DHT22;18136;42.236;-73.040;2022-07-03T05:56:38;14.60;99.90
31527;DHT22;18136;42.236;-73.040;2022-07-03T05:59:04;14.50;99.90
31527;DHT22;18136;42.236;-73.040;2022-07-03T06:01:30;14.50;99.90
31527;DHT22;18136;42.236;-73.040;2022-07-03T06:03:56;14.40;99.90
31527;DHT22;18136;42.236;-73.040;2022-07-03T06:06:23;14.40;99.90
31527;DHT22;18136;42.236;-73.040;2022-07-03T06:08:49;14.40;99.90
31527;DHT22;18136;42.236;-73.040;2022-07-03T06:11:15;14.40;99.90
31527;DHT22;18136;42.236;-73.040;2022-07-03T06:13:41;14.30;99.90
31527;DHT22;18136;42.236;-73.040;2022-07-03T06:16:07;14.30;99.90
31527;DHT22;18136;42.236;-73.040;2022-07-03T06:18:33;14.20;99.90
31527;DHT22;18136;42.236;-73.040;2022-07-03T06:20:59;14.20;99.90
31527;DHT22;18136;42.236;-73.040;2022-07-03T06:23:25;14.20;99.90
31527;DHT22;18136;42.236;-73.040;2022-07-03T06:25:51;14.20;99.90
31527;DHT22;18136;42.236;-73.040;2022-07-03T06:28:17;14.10;99.90
31527;DHT22;18136;42.236;-73.040;2022-07-03T06:30:43;14.10;99.90
31527;DHT22;18136;42.236;-73.040;2022-07-03T06:33:09;14.10;99.90
31527;DHT22;18136;42.236;-73.040;2022-07-03T06:35:36;14.00;99.90
31527;DHT22;18136;42.236;-73.040;2022-07-03T06:38:03;14.10;99.90
31527;DHT22;18136;42.236;-73.040;2022-07-03T06:40:29;14.00;99.90
31527;DHT22;18136;42.236;-73.040;2022-07-03T06:42:55;14.00;99.90
31527;DHT22;18136;42.236;-73.040;2022-07-03T06:45:22;13.90;99.90
31527;DHT22;18136;42.236;-73.040;2022-07-03T06:47:48;13.90;99.90
31527;DHT22;18136;42.236;-73.040;2022-07-03T06:50:14;13.90;99.90
31527;DHT22;18136;42.236;-73.040;2022-07-03T06:52:40;13.90;99.90
31527;DHT22;18136;42.236;-73.040;2022-07-03T06:55:08;13.90;99.90
31527;DHT22;18136;42.236;-73.040;2022-07-03T06:57:34;13.90;99.90
31527;DHT22;18136;42.236;-73.040;2022-07-03T07:00:00;13.80;99.90
31527;DHT22;18136;42.236;-73.040;2022-07-03T07:02:26;13.80;99.90
31527;DHT22;18136;42.236;-73.040;2022-07-03T07:04:53;13.80;99.90
31527;DHT22;18136;42.236;-73.040;2022-07-03T07:07:19;13.80;99.90
31527;DHT22;18136;42.236;-73.040;2022-07-03T07:09:45;13.80;99.90
31527;DHT22;18136;42.236;-73.040;2022-07-03T07:12:11;13.70;99.90
31527;DHT22;18136;42.236;-73.040;2022-07-03T07:14:38;13.70;99.90
31527;DHT22;18136;42.236;-73.040;2022-07-03T07:17:04;13.70;99.90
31527;DHT22;18136;42.236;-73.040;2022-07-03T07:19:30;13.80;99.90
31527;DHT22;18136;42.236;-73.040;2022-07-03T07:21:56;13.70;99.90
31527;DHT22;18136;42.236;-73.040;2022-07-03T07:24:22;13.70;99.90
31527;DHT22;18136;42.236;-73.040;2022-07-03T07:26:48;13.70;99.90
31527;DHT22;18136;42.236;-73.040;2022-07-03T07:29:14;13.70;99.90
31527;DHT22;18136;42.236;-73.040;2022-07-03T07:31:40;13.70;99.90
31527;DHT22;18136;42.236;-73.040;2022-07-03T07:34:07;13.70;99.90
31527;DHT22;18136;42.236;-73.040;2022-07-03T07:36:33;13.70;99.90
31527;DHT22;18136;42.236;-73.040;2022-07-03T07:39:00;13.60;99.90
31527;DHT22;18136;42.236;-73.040;2022-07-03T07:41:26;13.60;99.90
31527;DHT22;18136;42.236;-73.040;2022-07-03T07:43:52;13.60;99.90
31527;DHT22;18136;42.236;-73.040;2022-07-03T07:46:18;13.60;99.90
31527;DHT22;18136;42.236;-73.040;2022-07-03T07:48:45;13.60;99.90
31527;DHT22;18136;42.236;-73.040;2022-07-03T07:51:11;13.60;99.90
31527;DHT22;18136;42.236;-73.040;2022-07-03T07:53:37;13.60;99.90
31527;DHT22;18136;42.236;-73.040;2022-07-03T07:56:03;13.60;99.90
31527;DHT22;18136;42.236;-73.040;2022-07-03T07:58:29;13.50;99.90
31527;DHT22;18136;42.236;-73.040;2022-07-03T08:00:56;13.50;99.90
31527;DHT22;18136;42.236;-73.040;2022-07-03T08:03:40;13.60;99.90
31527;DHT22;18136;42.236;-73.040;2022-07-03T08:06:25;13.50;99.90
31527;DHT22;18136;42.236;-73.040;2022-07-03T08:08:51;13.50;99.90
31527;DHT22;18136;42.236;-73.040;2022-07-03T08:11:17;13.50;99.90
31527;DHT22;18136;42.236;-73.040;2022-07-03T08:13:43;13.50;99.90
31527;DHT22;18136;42.236;-73.040;2022-07-03T08:16:12;13.50;99.90
31527;DHT22;18136;42.236;-73.040;2022-07-03T08:18:39;13.50;99.90
31527;DHT22;18136;42.236;-73.040;2022-07-03T08:21:05;13.50;99.90
31527;DHT22;18136;42.236;-73.040;2022-07-03T08:23:31;13.50;99.90
31527;DHT22;18136;42.236;-73.040;2022-07-03T08:25:57;13.50;99.90
31527;DHT22;18136;42.236;-73.040;2022-07-03T08:28:23;13.50;99.90
31527;DHT22;18136;42.236;-73.040;2022-07-03T08:30:49;13.50;99.90
31527;DHT22;18136;42.236;-73.040;2022-07-03T08:33:15;13.50;99.90
31527;DHT22;18136;42.236;-73.040;2022-07-03T08:35:41;13.50;99.90
31527;DHT22;18136;42.236;-73.040;2022-07-03T08:38:08;13.50;99.90
31527;DHT22;18136;42.236;-73.040;2022-07-03T08:40:34;13.40;99.90
31527;DHT22;18136;42.236;-73.040;2022-07-03T08:43:01;13.50;99.90
31527;DHT22;18136;42.236;-73.040;2022-07-03T08:45:28;13.40;99.90
31527;DHT22;18136;42.236;-73.040;2022-07-03T08:47:57;13.40;99.90
31527;DHT22;18136;42.236;-73.040;2022-07-03T08:50:23;13.40;99.90
31527;DHT22;18136;42.236;-73.040;2022-07-03T08:52:50;13.40;99.90
31527;DHT22;18136;42.236;-73.040;2022-07-03T08:55:17;13.40;99.90
31527;DHT22;18136;42.236;-73.040;2022-07-03T08:57:44;13.40;99.90
31527;DHT22;18136;42.236;-73.040;2022-07-03T09:00:13;13.40;99.90
31527;DHT22;18136;42.236;-73.040;2022-07-03T09:02:43;13.40;99.90
31527;DHT22;18136;42.236;-73.040;2022-07-03T09:05:12;13.40;99.90
31527;DHT22;18136;42.236;-73.040;2022-07-03T09:07:40;13.30;99.90
31527;DHT22;18136;42.236;-73.040;2022-07-03T09:10:09;13.30;99.90
31527;DHT22;18136;42.236;-73.040;2022-07-03T09:12:36;13.30;99.90
31527;DHT22;18136;42.236;-73.040;2022-07-03T09:15:04;13.30;99.90
31527;DHT22;18136;42.236;-73.040;2022-07-03T09:17:31;13.20;99.90
31527;DHT22;18136;42.236;-73.040;2022-07-03T09:19:59;13.20;99.90
31527;DHT22;18136;42.236;-73.040;2022-07-03T09:22:30;13.20;99.90
31527;DHT22;18136;42.236;-73.040;2022-07-03T09:25:08;13.10;99.90
31527;DHT22;18136;42.236;-73.040;2022-07-03T09:27:39;13.10;99.90
31527;DHT22;18136;42.236;-73.040;2022-07-03T09:30:14;13.10;99.90
31527;DHT22;18136;42.236;-73.040;2022-07-03T09:32:45;13.10;99.90
31527;DHT22;18136;42.236;-73.040;2022-07-03T09:37:41;13.00;99.90
31527;DHT22;18136;42.236;-73.040;2022-07-03T09:40:13;13.00;99.90
31527;DHT22;18136;42.236;-73.040;2022-07-03T09:42:39;13.00;99.90
31527;DHT22;18136;42.236;-73.040;2022-07-03T09:45:05;13.00;99.90
31527;DHT22;18136;42.236;-73.040;2022-07-03T09:47:31;13.00;99.90
31527;DHT22;18136;42.236;-73.040;2022-07-03T09:50:00;13.00;99.90
31527;DHT22;18136;42.236;-73.040;2022-07-03T09:55:11;13.10;99.90
31527;DHT22;18136;42.236;-73.040;2022-07-03T10:00:20;13.10;99.90
31527;DHT22;18136;42.236;-73.040;2022-07-03T10:03:01;13.10;99.90
31527;DHT22;18136;42.236;-73.040;2022-07-03T10:08:16;13.00;99.90
31527;DHT22;18136;42.236;-73.040;2022-07-03T10:10:45;13.00;99.90
31527;DHT22;18136;42.236;-73.040;2022-07-03T10:13:12;13.10;99.90
31527;DHT22;18136;42.236;-73.040;2022-07-03T10:15:40;13.00;99.90
31527;DHT22;18136;42.236;-73.040;2022-07-03T10:18:08;13.00;99.90
31527;DHT22;18136;42.236;-73.040;2022-07-03T10:20:55;13.00;99.90
31527;DHT22;18136;42.236;-73.040;2022-07-03T10:23:22;13.00;99.90
31527;DHT22;18136;42.236;-73.040;2022-07-03T10:25:49;13.10;99.90
31527;DHT22;18136;42.236;-73.040;2022-07-03T10:28:17;13.10;99.90
31527;DHT22;18136;42.236;-73.040;2022-07-03T10:30:44;13.10;99.90
31527;DHT22;18136;42.236;-73.040;2022-07-03T10:33:11;13.10;99.90
31527;DHT22;18136;42.236;-73.040;2022-07-03T10:35:42;13.20;99.90
31527;DHT22;18136;42.236;-73.040;2022-07-03T10:40:59;13.20;99.90
31527;DHT22;18136;42.236;-73.040;2022-07-03T10:43:47;13.20;99.90
31527;DHT22;18136;42.236;-73.040;2022-07-03T10:46:32;13.30;99.90
31527;DHT22;18136;42.236;-73.040;2022-07-03T10:49:05;13.30;99.90
31527;DHT22;18136;42.236;-73.040;2022-07-03T10:51:52;13.30;99.90
31527;DHT22;18136;42.236;-73.040;2022-07-03T10:54:22;13.30;99.90
31527;DHT22;18136;42.236;-73.040;2022-07-03T11:13:06;13.50;99.90
31527;DHT22;18136;42.236;-73.040;2022-07-03T11:15:34;13.50;99.90
31527;DHT22;18136;42.236;-73.040;2022-07-03T11:25:57;13.60;99.90
31527;DHT22;18136;42.236;-73.040;2022-07-03T11:38:37;13.70;99.90
31527;DHT22;18136;42.236;-73.040;2022-07-03T11:41:07;13.70;99.90
31527;DHT22;18136;42.236;-73.040;2022-07-03T11:43:34;13.70;99.90
31527;DHT22;18136;42.236;-73.040;2022-07-03T11:46:01;13.80;99.90
31527;DHT22;18136;42.236;-73.040;2022-07-03T11:48:28;13.80;99.90
31527;DHT22;18136;42.236;-73.040;2022-07-03T11:51:03;13.80;99.90
31527;DHT22;18136;42.236;-73.040;2022-07-03T11:53:38;13.80;99.90
31527;DHT22;18136;42.236;-73.040;2022-07-03T11:56:11;13.80;99.90
31527;DHT22;18136;42.236;-73.040;2022-07-03T11:58:46;13.80;99.90
31527;DHT22;18136;42.236;-73.040;2022-07-03T12:03:50;14.00;99.90
31527;DHT22;18136;42.236;-73.040;2022-07-03T12:06:17;14.00;99.90
31527;DHT22;18136;42.236;-73.040;2022-07-03T12:08:44;14.00;99.90
31527;DHT22;18136;42.236;-73.040;2022-07-03T12:11:15;14.00;99.90
31527;DHT22;18136;42.236;-73.040;2022-07-03T12:13:42;14.00;99.90
31527;DHT22;18136;42.236;-73.040;2022-07-03T12:16:12;14.00;99.90
31527;DHT22;18136;42.236;-73.040;2022-07-03T12:18:46;14.10;99.90
31527;DHT22;18136;42.236;-73.040;2022-07-03T12:21:14;14.10;99.90
31527;DHT22;18136;42.236;-73.040;2022-07-03T12:23:44;14.20;99.90
31527;DHT22;18136;42.236;-73.040;2022-07-03T12:26:11;14.20;99.90
31527;DHT22;18136;42.236;-73.040;2022-07-03T12:28:38;14.20;99.90
31527;DHT22;18136;42.236;-73.040;2022-07-03T12:31:04;14.20;99.90
31527;DHT22;18136;42.236;-73.040;2022-07-03T12:33:31;14.20;99.90
31527;DHT22;18136;42.236;-73.040;2022-07-03T12:36:08;14.30;99.90
31527;DHT22;18136;42.236;-73.040;2022-07-03T12:38:38;14.30;99.90
31527;DHT22;18136;42.236;-73.040;2022-07-03T12:41:09;14.30;99.90
31527;DHT22;18136;42.236;-73.040;2022-07-03T12:43:39;14.40;99.90
31527;DHT22;18136;42.236;-73.040;2022-07-03T12:46:20;14.40;99.90
31527;DHT22;18136;42.236;-73.040;2022-07-03T12:48:53;14.40;99.90
31527;DHT22;18136;42.236;-73.040;2022-07-03T12:51:39;14.40;99.90
31527;DHT22;18136;42.236;-73.040;2022-07-03T12:54:22;14.40;99.90
31527;DHT22;18136;42.236;-73.040;2022-07-03T12:57:07;14.50;99.90
31527;DHT22;18136;42.236;-73.040;2022-07-03T13:00:12;14.50;99.90
31527;DHT22;18136;42.236;-73.040;2022-07-03T13:02:43;14.60;99.90
31527;DHT22;18136;42.236;-73.040;2022-07-03T13:05:23;14.60;99.90
31527;DHT22;18136;42.236;-73.040;2022-07-03T13:07:52;14.70;99.90
31527;DHT22;18136;42.236;-73.040;2022-07-03T13:10:20;14.80;99.90
31527;DHT22;18136;42.236;-73.040;2022-07-03T13:12:52;14.90;99.90
31527;DHT22;18136;42.236;-73.040;2022-07-03T13:15:19;15.00;99.90
31527;DHT22;18136;42.236;-73.040;2022-07-03T13:20:21;15.00;99.90
31527;DHT22;18136;42.236;-73.040;2022-07-03T13:22:48;15.10;99.90
31527;DHT22;18136;42.236;-73.040;2022-07-03T13:25:15;15.10;99.90
31527;DHT22;18136;42.236;-73.040;2022-07-03T13:27:41;15.30;99.90
31527;DHT22;18136;42.236;-73.040;2022-07-03T13:30:09;15.50;99.90
31527;DHT22;18136;42.236;-73.040;2022-07-03T13:32:35;15.70;99.90
31527;DHT22;18136;42.236;-73.040;2022-07-03T13:35:01;15.90;99.90
31527;DHT22;18136;42.236;-73.040;2022-07-03T13:37:27;16.00;99.90
31527;DHT22;18136;42.236;-73.040;2022-07-03T13:39:53;16.10;99.90
31527;DHT22;18136;42.236;-73.040;2022-07-03T13:42:19;16.10;99.90
31527;DHT22;18136;42.236;-73.040;2022-07-03T13:44:45;16.00;99.90
31527;DHT22;18136;42.236;-73.040;2022-07-03T13:47:12;16.00;99.90
31527;DHT22;18136;42.236;-73.040;2022-07-03T13:49:38;16.00;99.90
31527;DHT22;18136;42.236;-73.040;2022-07-03T13:52:05;16.10;99.90
31527;DHT22;18136;42.236;-73.040;2022-07-03T13:54:31;16.30;99.90
31527;DHT22;18136;42.236;-73.040;2022-07-03T13:56:57;16.60;99.90
31527;DHT22;18136;42.236;-73.040;2022-07-03T13:59:23;16.90;99.90
31527;DHT22;18136;42.236;-73.040;2022-07-03T14:01:49;17.10;99.90
31527;DHT22;18136;42.236;-73.040;2022-07-03T14:04:15;17.30;99.90
31527;DHT22;18136;42.236;-73.040;2022-07-03T14:06:41;17.40;99.90
31527;DHT22;18136;42.236;-73.040;2022-07-03T14:09:07;17.50;99.90
31527;DHT22;18136;42.236;-73.040;2022-07-03T14:11:34;17.60;99.90
31527;DHT22;18136;42.236;-73.040;2022-07-03T14:14:00;17.70;99.90
31527;DHT22;18136;42.236;-73.040;2022-07-03T14:16:29;17.90;99.90
31527;DHT22;18136;42.236;-73.040;2022-07-03T14:18:56;17.90;99.90
31527;DHT22;18136;42.236;-73.040;2022-07-03T14:21:22;17.90;99.90
31527;DHT22;18136;42.236;-73.040;2022-07-03T14:23:48;17.90;99.90
31527;DHT22;18136;42.236;-73.040;2022-07-03T14:26:14;17.80;99.90
31527;DHT22;18136;42.236;-73.040;2022-07-03T14:28:40;17.80;99.90
31527;DHT22;18136;42.236;-73.040;2022-07-03T14:31:25;17.80;99.90
31527;DHT22;18136;42.236;-73.040;2022-07-03T14:33:52;17.80;99.90
31527;DHT22;18136;42.236;-73.040;2022-07-03T14:36:18;17.80;99.90
31527;DHT22;18136;42.236;-73.040;2022-07-03T14:38:45;18.00;99.90
31527;DHT22;18136;42.236;-73.040;2022-07-03T14:41:11;18.10;99.90
31527;DHT22;18136;42.236;-73.040;2022-07-03T14:43:37;18.30;99.90
31527;DHT22;18136;42.236;-73.040;2022-07-03T14:46:04;18.30;99.90
31527;DHT22;18136;42.236;-73.040;2022-07-03T14:48:30;18.30;99.90
31527;DHT22;18136;42.236;-73.040;2022-07-03T14:50:56;18.40;99.90
31527;DHT22;18136;42.236;-73.040;2022-07-03T14:53:22;18.60;99.90
31527;DHT22;18136;42.236;-73.040;2022-07-03T14:55:49;18.70;99.90
31527;DHT22;18136;42.236;-73.040;2022-07-03T14:58:19;18.90;99.90
31527;DHT22;18136;42.236;-73.040;2022-07-03T15:00:53;19.00;99.90
31527;DHT22;18136;42.236;-73.040;2022-07-03T15:03:28;19.10;99.90
31527;DHT22;18136;42.236;-73.040;2022-07-03T15:05:59;19.20;99.90
31527;DHT22;18136;42.236;-73.040;2022-07-03T15:11:06;19.50;99.90
31527;DHT22;18136;42.236;-73.040;2022-07-03T15:13:34;19.50;99.90
31527;DHT22;18136;42.236;-73.040;2022-07-03T15:16:01;19.60;99.90
31527;DHT22;18136;42.236;-73.040;2022-07-03T15:18:28;19.60;99.90
31527;DHT22;18136;42.236;-73.040;2022-07-03T15:20:55;19.80;99.90
31527;DHT22;18136;42.236;-73.040;2022-07-03T15:23:23;19.80;99.90
31527;DHT22;18136;42.236;-73.040;2022-07-03T15:25:50;19.90;99.90
31527;DHT22;18136;42.236;-73.040;2022-07-03T15:28:16;20.00;99.90
31527;DHT22;18136;42.236;-73.040;2022-07-03T15:30:48;20.10;99.90
31527;DHT22;18136;42.236;-73.040;2022-07-03T15:33:16;20.10;99.90
31527;DHT22;18136;42.236;-73.040;2022-07-03T15:36:00;20.10;99.90
31527;DHT22;18136;42.236;-73.040;2022-07-03T15:38:47;20.10;99.90
31527;DHT22;18136;42.236;-73.040;2022-07-03T15:41:24;20.30;99.90
31527;DHT22;18136;42.236;-73.040;2022-07-03T15:44:14;20.40;99.90
31527;DHT22;18136;42.236;-73.040;2022-07-03T15:49:33;20.70;99.90
31527;DHT22;18136;42.236;-73.040;2022-07-03T15:52:05;20.80;99.90
31527;DHT22;18136;42.236;-73.040;2022-07-03T15:57:32;20.80;99.90
31527;DHT22;18136;42.236;-73.040;2022-07-03T16:00:05;20.90;99.90
31527;DHT22;18136;42.236;-73.040;2022-07-03T16:05:34;21.00;99.90
31527;DHT22;18136;42.236;-73.040;2022-07-03T16:08:04;20.90;99.90
31527;DHT22;18136;42.236;-73.040;2022-07-03T16:10:32;20.90;99.90
31527;DHT22;18136;42.236;-73.040;2022-07-03T16:12:59;21.00;99.90
31527;DHT22;18136;42.236;-73.040;2022-07-03T16:15:30;21.00;99.90
31527;DHT22;18136;42.236;-73.040;2022-07-03T16:17:57;21.10;99.90
31527;DHT22;18136;42.236;-73.040;2022-07-03T16:20:27;21.20;99.90
31527;DHT22;18136;42.236;-73.040;2022-07-03T16:23:04;21.20;99.90
31527;DHT22;18136;42.236;-73.040;2022-07-03T16:25:34;21.20;99.90
31527;DHT22;18136;42.236;-73.040;2022-07-03T16:28:03;21.30;99.90
31527;DHT22;18136;42.236;-73.040;2022-07-03T16:30:35;21.40;99.90
31527;DHT22;18136;42.236;-73.040;2022-07-03T16:33:03;21.50;99.90
31527;DHT22;18136;42.236;-73.040;2022-07-03T16:36:03;21.70;99.90
31527;DHT22;18136;42.236;-73.040;2022-07-03T16:38:59;21.80;99.90
31527;DHT22;18136;42.236;-73.040;2022-07-03T16:41:29;21.90;99.90
31527;DHT22;18136;42.236;-73.040;2022-07-03T16:43:57;22.00;99.90
31527;DHT22;18136;42.236;-73.040;2022-07-03T16:46:25;22.00;99.90
31527;DHT22;18136;42.236;-73.040;2022-07-03T16:48:54;21.80;99.90
31527;DHT22;18136;42.236;-73.040;2022-07-03T16:51:24;21.70;99.30
31527;DHT22;18136;42.236;-73.040;2022-07-03T16:53:51;21.80;99.90
31527;DHT22;18136;42.236;-73.040;2022-07-03T16:56:18;22.00;99.90
31527;DHT22;18136;42.236;-73.040;2022-07-03T16:58:45;22.00;99.90
31527;DHT22;18136;42.236;-73.040;2022-07-03T17:01:11;22.00;99.90
31527;DHT22;18136;42.236;-73.040;2022-07-03T17:03:38;22.00;99.90
31527;DHT22;18136;42.236;-73.040;2022-07-03T17:06:08;22.00;99.90